KEOK/EOK METAR and TAF weather

Enter ICAO airport designator
Station Type Date Time Source
KEOK METAR 2019/04/24 16:35 UTC NOAA

KEOK 241635Z AUTO 13006KT 10SM OVC026 13/09 A2994 RMK AO2


Station Type Date Time Source
KEOK Decoded METAR 2019/04/24 16:35 UTC NOAA

Keokuk Municipal, IA, United States (KEOK) 40-28N 091-26W
Apr 24, 2019 - 12:35 PM EDT / 2019.04.24 1635 UTC
Wind: from the SE (130 degrees) at 7 MPH (6 KT):0
Visibility: 10 mile(s):0
Sky conditions: overcast
Temperature: 55 F (13 C)
Dew Point: 48 F (9 C)
Relative Humidity: 76%
Pressure (altimeter): 29.94 in. Hg (1013 hPa)
ob: KEOK 241635Z AUTO 13006KT 10SM OVC026 13/09 A2994 RMK AO2
cycle: 16

Station Type Date Time Source
KEOK TAF UTC NOAA

Error!

Example: see airport list